createdAt,value
2023-02-18T00:08:02.441Z,11.75
2023-02-18T00:18:03.664Z,11.82
2023-02-18T00:28:04.886Z,11.89
2023-02-18T00:38:06.397Z,11.79
2023-02-18T00:48:07.630Z,11.91
2023-02-18T00:58:08.833Z,11.85
2023-02-18T01:08:10.129Z,11.79
2023-02-18T01:18:11.363Z,11.84
2023-02-18T01:28:12.590Z,11.79
2023-02-18T01:38:14.129Z,11.74
2023-02-18T01:48:15.357Z,11.77
2023-02-18T01:58:16.662Z,11.79
2023-02-18T02:08:17.954Z,11.78
2023-02-18T02:18:19.252Z,11.67
2023-02-18T02:28:20.475Z,11.78
2023-02-18T02:38:21.719Z,11.73
2023-02-18T02:48:22.957Z,11.73
2023-02-18T02:58:24.171Z,11.80
2023-02-18T03:08:25.431Z,11.73
2023-02-18T03:18:26.635Z,11.63
2023-02-18T03:28:28.568Z,11.62
2023-02-18T03:38:29.951Z,11.64
2023-02-18T04:30:43.905Z,11.66
2023-02-18T04:40:45.369Z,11.55
2023-02-18T04:51:09.528Z,11.45
2023-02-18T05:01:13.907Z,11.22
2023-02-18T05:11:15.173Z,11.16
2023-02-18T05:21:17.710Z,11.09
2023-02-18T05:31:19.470Z,10.89
2023-02-18T05:41:20.917Z,10.96
2023-02-18T05:51:22.194Z,11.03
2023-02-18T06:01:23.654Z,11.25
2023-02-18T06:11:24.996Z,11.29
2023-02-18T06:21:26.192Z,11.28
2023-02-18T06:31:27.642Z,11.32
2023-02-18T06:41:29.087Z,11.22
2023-02-18T06:51:30.355Z,11.28
2023-02-18T07:01:31.583Z,11.36
2023-02-18T07:11:32.803Z,11.42
2023-02-18T07:21:34.282Z,11.47
2023-02-18T07:31:37.039Z,11.59
2023-02-18T07:41:38.509Z,11.65
2023-02-18T07:51:40.366Z,11.73
2023-02-18T08:01:42.978Z,11.98
2023-02-18T08:11:45.338Z,12.12
2023-02-18T08:21:46.543Z,12.37
2023-02-18T08:31:47.908Z,12.65
2023-02-18T08:41:49.535Z,12.87
2023-02-18T08:51:50.761Z,13.29
2023-02-18T09:01:52.064Z,13.29
2023-02-18T09:11:53.353Z,13.26
2023-02-18T09:21:54.610Z,13.50
2023-02-18T09:31:55.884Z,13.58
2023-02-18T09:41:57.345Z,13.66
2023-02-18T09:51:58.565Z,13.91
2023-02-18T10:02:02.340Z,13.93
2023-02-18T10:12:03.747Z,13.71
2023-02-18T10:22:05.234Z,14.06
2023-02-18T10:32:07.688Z,14.37
2023-02-18T10:42:09.161Z,14.37
2023-02-18T10:52:10.403Z,14.10
2023-02-18T11:02:11.628Z,14.17
2023-02-18T11:12:12.851Z,14.27
2023-02-18T11:22:14.070Z,14.58
2023-02-18T11:32:15.348Z,14.33
2023-02-18T11:42:16.795Z,14.01
2023-02-18T11:52:18.469Z,13.84
2023-02-18T12:02:19.827Z,13.84
2023-02-18T12:12:21.114Z,13.82
2023-02-18T12:22:22.368Z,13.90
2023-02-18T12:32:23.593Z,13.86
2023-02-18T12:42:25.060Z,13.65
2023-02-18T12:52:26.331Z,13.57
2023-02-18T13:02:27.634Z,13.58
2023-02-18T13:12:28.897Z,14.02
2023-02-18T13:22:30.108Z,14.36
2023-02-18T13:32:31.383Z,14.16
2023-02-18T13:42:32.760Z,14.32
2023-02-18T13:52:34.026Z,14.41
2023-02-18T14:02:35.466Z,14.52
2023-02-18T14:12:37.619Z,14.05
2023-02-18T14:22:38.870Z,13.78
2023-02-18T14:32:40.076Z,13.59
2023-02-18T14:42:41.577Z,13.54
2023-02-18T14:52:42.810Z,13.43
2023-02-18T15:02:44.025Z,13.50
2023-02-18T15:12:45.269Z,13.23
2023-02-18T15:22:46.529Z,13.18
2023-02-18T15:32:47.725Z,13.17
2023-02-18T15:42:49.284Z,13.08
2023-02-18T15:52:59.847Z,12.85
2023-02-18T16:03:01.488Z,12.73
2023-02-18T16:13:02.881Z,12.66
2023-02-18T16:23:04.207Z,12.54
2023-02-18T16:33:05.394Z,12.58
2023-02-18T16:43:06.613Z,12.46
2023-02-18T16:53:07.873Z,12.37
2023-02-18T17:03:09.107Z,12.25
2023-02-18T17:13:10.320Z,12.05
2023-02-18T17:23:11.570Z,12.03
2023-02-18T17:33:12.802Z,11.92
2023-02-18T17:43:14.848Z,11.72
2023-02-18T17:53:16.225Z,11.69
2023-02-18T18:03:17.516Z,11.63
2023-02-18T18:13:19.044Z,11.59
2023-02-18T18:23:20.274Z,11.51
2023-02-18T18:44:08.333Z,11.21
2023-02-18T18:54:09.541Z,10.91
2023-02-18T19:04:31.360Z,10.77
2023-02-18T19:14:32.638Z,10.74
2023-02-18T19:24:33.847Z,10.68
2023-02-18T19:34:35.094Z,10.69
2023-02-18T19:44:36.787Z,10.62
2023-02-18T19:54:38.030Z,10.52
2023-02-18T20:04:39.241Z,10.37
2023-02-18T20:14:40.565Z,10.28
2023-02-18T20:24:41.971Z,10.27
2023-02-18T20:34:43.384Z,10.24
2023-02-18T20:44:44.708Z,10.17
2023-02-18T20:54:45.946Z,9.99
2023-02-18T21:04:47.266Z,9.95
2023-02-18T21:14:48.468Z,9.89
2023-02-18T21:24:49.677Z,9.95
2023-02-18T21:34:50.911Z,9.96
2023-02-18T21:44:52.487Z,9.89
2023-02-18T21:54:53.760Z,9.88
2023-02-18T22:04:54.976Z,9.89
2023-02-18T22:14:56.221Z,9.94
2023-02-18T22:24:57.425Z,9.80
2023-02-18T22:34:59.923Z,9.71
2023-02-18T22:45:03.019Z,9.85
2023-02-18T22:55:04.219Z,9.83
2023-02-18T23:05:05.507Z,9.76
2023-02-18T23:15:06.708Z,9.83
2023-02-18T23:25:07.930Z,9.69
2023-02-18T23:35:09.141Z,9.72
2023-02-18T23:45:10.419Z,9.61
2023-02-18T23:55:11.665Z,9.50
